sensor_id;sensor_type;location;lat;lon;timestamp;pressure;altitude;pressure_sealevel;temperature;humidity
48862;BME280;34681;49.188;-0.374;2023-09-30T00:02:21;102337.50;;;22.08;58.17
48862;BME280;34681;49.188;-0.374;2023-09-30T00:04:46;102347.78;;;22.08;57.68
48862;BME280;34681;49.188;-0.374;2023-09-30T00:07:12;102353.34;;;22.08;58.34
48862;BME280;34681;49.188;-0.374;2023-09-30T00:09:37;102359.94;;;22.07;57.99
48862;BME280;34681;49.188;-0.374;2023-09-30T00:12:03;102365.53;;;22.07;58.19
48862;BME280;34681;49.188;-0.374;2023-09-30T00:14:28;102370.41;;;22.05;58.21
48862;BME280;34681;49.188;-0.374;2023-09-30T00:16:54;102377.72;;;22.06;58.04
48862;BME280;34681;49.188;-0.374;2023-09-30T00:19:20;102375.81;;;22.06;58.32
48862;BME280;34681;49.188;-0.374;2023-09-30T00:21:47;102382.44;;;22.05;58.16
48862;BME280;34681;49.188;-0.374;2023-09-30T00:24:14;102383.28;;;22.06;58.19
48862;BME280;34681;49.188;-0.374;2023-09-30T00:26:39;102392.72;;;22.05;58.26
48862;BME280;34681;49.188;-0.374;2023-09-30T00:29:05;102398.47;;;22.03;58.29
48862;BME280;34681;49.188;-0.374;2023-09-30T00:31:31;102398.47;;;22.03;58.46
48862;BME280;34681;49.188;-0.374;2023-09-30T00:33:57;102389.25;;;22.03;58.12
48862;BME280;34681;49.188;-0.374;2023-09-30T00:36:22;102387.31;;;22.03;58.30
48862;BME280;34681;49.188;-0.374;2023-09-30T00:38:47;102388.38;;;22.02;58.25
48862;BME280;34681;49.188;-0.374;2023-09-30T00:41:13;102390.31;;;22.02;58.55
48862;BME280;34681;49.188;-0.374;2023-09-30T00:43:39;102384.88;;;22.00;58.34
48862;BME280;34681;49.188;-0.374;2023-09-30T00:48:42;102391.31;;;22.01;58.20
48862;BME280;34681;49.188;-0.374;2023-09-30T00:51:08;102400.59;;;22.01;58.42
48862;BME280;34681;49.188;-0.374;2023-09-30T00:53:33;102399.69;;;22.01;58.22
48862;BME280;34681;49.188;-0.374;2023-09-30T00:55:59;102394.13;;;22.01;58.65
48862;BME280;34681;49.188;-0.374;2023-09-30T00:58:26;102401.78;;;21.99;58.42
48862;BME280;34681;49.188;-0.374;2023-09-30T01:00:56;102400.75;;;22.00;58.52
48862;BME280;34681;49.188;-0.374;2023-09-30T01:03:22;102406.50;;;21.98;58.51
48862;BME280;34681;49.188;-0.374;2023-09-30T01:05:48;102419.56;;;21.98;58.46
48862;BME280;34681;49.188;-0.374;2023-09-30T01:08:15;102413.81;;;21.99;58.55
48862;BME280;34681;49.188;-0.374;2023-09-30T01:10:41;102418.53;;;21.99;58.50
48862;BME280;34681;49.188;-0.374;2023-09-30T01:13:07;102423.22;;;21.98;58.50
48862;BME280;34681;49.188;-0.374;2023-09-30T01:15:32;102410.16;;;21.99;58.38
48862;BME280;34681;49.188;-0.374;2023-09-30T01:17:57;102401.13;;;21.97;58.73
48862;BME280;34681;49.188;-0.374;2023-09-30T01:20:23;102403.03;;;21.96;58.42
48862;BME280;34681;49.188;-0.374;2023-09-30T01:22:49;102408.63;;;21.96;58.57
48862;BME280;34681;49.188;-0.374;2023-09-30T01:25:14;102415.06;;;21.97;58.58
48862;BME280;34681;49.188;-0.374;2023-09-30T01:27:39;102424.47;;;21.96;58.60
48862;BME280;34681;49.188;-0.374;2023-09-30T01:30:05;102421.88;;;21.94;58.51
48862;BME280;34681;49.188;-0.374;2023-09-30T01:32:31;102429.38;;;21.94;58.76
48862;BME280;34681;49.188;-0.374;2023-09-30T01:34:56;102425.53;;;21.95;58.42
48862;BME280;34681;49.188;-0.374;2023-09-30T01:37:22;102421.00;;;21.94;58.47
48862;BME280;34681;49.188;-0.374;2023-09-30T01:39:47;102414.56;;;21.93;58.82
48862;BME280;34681;49.188;-0.374;2023-09-30T01:42:15;102421.88;;;21.94;58.65
48862;BME280;34681;49.188;-0.374;2023-09-30T01:44:40;102418.38;;;21.92;58.57
48862;BME280;34681;49.188;-0.374;2023-09-30T01:47:06;102419.25;;;21.93;58.65
48862;BME280;34681;49.188;-0.374;2023-09-30T01:49:31;102417.50;;;21.92;58.77
48862;BME280;34681;49.188;-0.374;2023-09-30T01:51:56;102401.84;;;21.91;58.53
48862;BME280;34681;49.188;-0.374;2023-09-30T01:54:22;102411.94;;;21.92;58.77
48862;BME280;34681;49.188;-0.374;2023-09-30T01:56:47;102407.22;;;21.92;58.53
48862;BME280;34681;49.188;-0.374;2023-09-30T01:59:13;102410.19;;;21.91;58.91
48862;BME280;34681;49.188;-0.374;2023-09-30T02:01:38;102410.19;;;21.91;58.62
48862;BME280;34681;49.188;-0.374;2023-09-30T02:04:03;102405.69;;;21.90;58.80
48862;BME280;34681;49.188;-0.374;2023-09-30T02:06:31;102393.66;;;21.89;58.54
48862;BME280;34681;49.188;-0.374;2023-09-30T02:08:57;102399.06;;;21.91;58.78
48862;BME280;34681;49.188;-0.374;2023-09-30T02:11:22;102391.56;;;21.91;58.65
48862;BME280;34681;49.188;-0.374;2023-09-30T02:13:47;102387.91;;;21.91;58.56
48862;BME280;34681;49.188;-0.374;2023-09-30T02:16:13;102398.19;;;21.90;58.80
48862;BME280;34681;49.188;-0.374;2023-09-30T02:18:39;102390.00;;;21.88;58.74
48862;BME280;34681;49.188;-0.374;2023-09-30T02:21:06;102390.00;;;21.88;58.44
48862;BME280;34681;49.188;-0.374;2023-09-30T02:23:34;102388.28;;;21.87;58.77
48862;BME280;34681;49.188;-0.374;2023-09-30T02:25:59;102386.38;;;21.88;58.50
48862;BME280;34681;49.188;-0.374;2023-09-30T02:28:25;102395.78;;;21.87;58.64
48862;BME280;34681;49.188;-0.374;2023-09-30T02:30:50;102391.06;;;21.87;58.81
48862;BME280;34681;49.188;-0.374;2023-09-30T02:33:15;102382.72;;;21.87;58.63
48862;BME280;34681;49.188;-0.374;2023-09-30T02:35:47;102366.66;;;21.90;58.59
48862;BME280;34681;49.188;-0.374;2023-09-30T02:38:12;102372.63;;;21.86;58.86
48862;BME280;34681;49.188;-0.374;2023-09-30T02:40:41;102369.81;;;21.86;58.77
48862;BME280;34681;49.188;-0.374;2023-09-30T02:43:10;102363.53;;;21.84;58.87
48862;BME280;34681;49.188;-0.374;2023-09-30T02:45:35;102361.81;;;21.83;58.53
48862;BME280;34681;49.188;-0.374;2023-09-30T02:48:00;102364.78;;;21.82;58.84
48862;BME280;34681;49.188;-0.374;2023-09-30T02:50:26;102353.47;;;21.83;58.73
48862;BME280;34681;49.188;-0.374;2023-09-30T02:52:51;102361.81;;;21.83;58.68
48862;BME280;34681;49.188;-0.374;2023-09-30T02:55:17;102362.00;;;21.82;58.60
48862;BME280;34681;49.188;-0.374;2023-09-30T02:57:42;102364.78;;;21.82;58.69
48862;BME280;34681;49.188;-0.374;2023-09-30T03:00:09;102364.44;;;21.85;58.76
48862;BME280;34681;49.188;-0.374;2023-09-30T03:02:54;102358.16;;;21.83;58.52
48862;BME280;34681;49.188;-0.374;2023-09-30T03:05:21;102350.19;;;21.80;58.84
48862;BME280;34681;49.188;-0.374;2023-09-30T03:07:47;102354.88;;;21.79;58.86
48862;BME280;34681;49.188;-0.374;2023-09-30T03:10:13;102369.88;;;21.78;58.53
48862;BME280;34681;49.188;-0.374;2023-09-30T03:12:39;102371.59;;;21.79;58.75
48862;BME280;34681;49.188;-0.374;2023-09-30T03:15:05;102365.16;;;21.79;58.78
48862;BME280;34681;49.188;-0.374;2023-09-30T03:17:31;102355.94;;;21.78;58.86
48862;BME280;34681;49.188;-0.374;2023-09-30T03:19:58;102336.44;;;21.78;58.89
48862;BME280;34681;49.188;-0.374;2023-09-30T03:22:24;102318.84;;;21.78;58.62
48862;BME280;34681;49.188;-0.374;2023-09-30T03:24:49;102317.13;;;21.77;58.78
48862;BME280;34681;49.188;-0.374;2023-09-30T03:27:15;102311.56;;;21.77;58.78
48862;BME280;34681;49.188;-0.374;2023-09-30T03:29:43;102327.41;;;21.76;58.61
48862;BME280;34681;49.188;-0.374;2023-09-30T03:32:08;102338.53;;;21.76;58.61
48862;BME280;34681;49.188;-0.374;2023-09-30T03:34:34;102338.53;;;21.76;58.89
48862;BME280;34681;49.188;-0.374;2023-09-30T03:37:01;102334.84;;;21.76;58.53
48862;BME280;34681;49.188;-0.374;2023-09-30T03:39:26;102339.75;;;21.74;58.64
48862;BME280;34681;49.188;-0.374;2023-09-30T03:41:54;102337.66;;;21.76;58.78
48862;BME280;34681;49.188;-0.374;2023-09-30T03:44:21;102344.28;;;21.75;58.80
48862;BME280;34681;49.188;-0.374;2023-09-30T03:46:48;102345.31;;;21.74;58.69
48862;BME280;34681;49.188;-0.374;2023-09-30T03:49:13;102347.06;;;21.75;58.78
48862;BME280;34681;49.188;-0.374;2023-09-30T03:51:39;102368.28;;;21.76;59.07
48862;BME280;34681;49.188;-0.374;2023-09-30T03:54:04;102386.94;;;21.75;58.56
48862;BME280;34681;49.188;-0.374;2023-09-30T03:56:31;102373.00;;;21.75;58.58
48862;BME280;34681;49.188;-0.374;2023-09-30T03:58:56;102356.28;;;21.75;58.90
48862;BME280;34681;49.188;-0.374;2023-09-30T04:01:21;102354.38;;;21.76;58.53
48862;BME280;34681;49.188;-0.374;2023-09-30T04:03:48;102364.63;;;21.75;58.71
48862;BME280;34681;49.188;-0.374;2023-09-30T04:06:14;102382.41;;;21.74;58.59
48862;BME280;34681;49.188;-0.374;2023-09-30T04:08:40;102377.88;;;21.73;58.74
48862;BME280;34681;49.188;-0.374;2023-09-30T04:11:05;102378.75;;;21.74;58.81
48862;BME280;34681;49.188;-0.374;2023-09-30T04:13:31;102358.38;;;21.73;58.74
48862;BME280;34681;49.188;-0.374;2023-09-30T04:15:58;102355.78;;;21.72;58.75
48862;BME280;34681;49.188;-0.374;2023-09-30T04:18:24;102343.59;;;21.73;58.66
48862;BME280;34681;49.188;-0.374;2023-09-30T04:20:51;102344.66;;;21.72;58.58
48862;BME280;34681;49.188;-0.374;2023-09-30T04:23:17;102356.66;;;21.72;58.73
48862;BME280;34681;49.188;-0.374;2023-09-30T04:25:44;102357.53;;;21.73;58.86
48862;BME280;34681;49.188;-0.374;2023-09-30T04:28:12;102354.75;;;21.73;58.81
48862;BME280;34681;49.188;-0.374;2023-09-30T04:30:37;102354.75;;;21.73;58.82
48862;BME280;34681;49.188;-0.374;2023-09-30T04:33:03;102343.59;;;21.73;58.53
48862;BME280;34681;49.188;-0.374;2023-09-30T04:35:31;102327.94;;;21.72;58.74
48862;BME280;34681;49.188;-0.374;2023-09-30T04:37:56;102327.94;;;21.72;58.65
48862;BME280;34681;49.188;-0.374;2023-09-30T04:40:26;102335.44;;;21.71;58.89
48862;BME280;34681;49.188;-0.374;2023-09-30T04:42:52;102337.34;;;21.71;58.57
48862;BME280;34681;49.188;-0.374;2023-09-30T04:45:20;102329.00;;;21.71;58.89
48862;BME280;34681;49.188;-0.374;2023-09-30T04:47:46;102326.22;;;21.71;58.64
48862;BME280;34681;49.188;-0.374;2023-09-30T04:50:13;102306.03;;;21.69;58.93
48862;BME280;34681;49.188;-0.374;2023-09-30T04:52:42;102298.53;;;21.69;58.71
48862;BME280;34681;49.188;-0.374;2023-09-30T04:55:08;102282.88;;;21.68;58.92
48862;BME280;34681;49.188;-0.374;2023-09-30T04:57:33;102298.69;;;21.68;58.57
48862;BME280;34681;49.188;-0.374;2023-09-30T04:59:59;102292.44;;;21.66;58.66
48862;BME280;34681;49.188;-0.374;2023-09-30T05:02:25;102284.94;;;21.66;58.70
48862;BME280;34681;49.188;-0.374;2023-09-30T05:04:51;102300.59;;;21.67;58.74
48862;BME280;34681;49.188;-0.374;2023-09-30T05:07:17;102307.25;;;21.66;58.48
48862;BME280;34681;49.188;-0.374;2023-09-30T05:09:43;102313.00;;;21.65;58.81
48862;BME280;34681;49.188;-0.374;2023-09-30T05:12:08;102317.69;;;21.64;58.79
48862;BME280;34681;49.188;-0.374;2023-09-30T05:14:35;102313.00;;;21.65;58.79
48862;BME280;34681;49.188;-0.374;2023-09-30T05:17:02;102312.13;;;21.64;58.71
48862;BME280;34681;49.188;-0.374;2023-09-30T05:19:29;102311.25;;;21.64;58.82
48862;BME280;34681;49.188;-0.374;2023-09-30T05:21:56;102320.47;;;21.64;58.61
48862;BME280;34681;49.188;-0.374;2023-09-30T05:24:21;102322.22;;;21.65;58.91
48862;BME280;34681;49.188;-0.374;2023-09-30T05:26:46;102331.44;;;21.66;58.57
48862;BME280;34681;49.188;-0.374;2023-09-30T05:29:13;102329.53;;;21.66;58.98
48862;BME280;34681;49.188;-0.374;2023-09-30T05:31:38;102328.66;;;21.66;58.65
48862;BME280;34681;49.188;-0.374;2023-09-30T05:34:04;102333.34;;;21.65;58.56
48862;BME280;34681;49.188;-0.374;2023-09-30T05:36:29;102335.97;;;21.67;58.44
48862;BME280;34681;49.188;-0.374;2023-09-30T05:38:55;102337.88;;;21.66;58.80
48862;BME280;34681;49.188;-0.374;2023-09-30T05:41:21;102337.00;;;21.66;58.64
48862;BME280;34681;49.188;-0.374;2023-09-30T05:43:46;102338.75;;;21.67;58.70
48862;BME280;34681;49.188;-0.374;2023-09-30T05:46:12;102330.56;;;21.65;58.78
48862;BME280;34681;49.188;-0.374;2023-09-30T05:48:38;102325.88;;;21.66;58.59
48862;BME280;34681;49.188;-0.374;2023-09-30T05:51:04;102308.28;;;21.65;58.75
48862;BME280;34681;49.188;-0.374;2023-09-30T05:53:31;102305.50;;;21.65;58.74
48862;BME280;34681;49.188;-0.374;2023-09-30T05:55:58;102318.38;;;21.66;58.58
48862;BME280;34681;49.188;-0.374;2023-09-30T05:58:24;102323.75;;;21.68;58.61
48862;BME280;34681;49.188;-0.374;2023-09-30T06:00:51;102322.03;;;21.67;58.56
48862;BME280;34681;49.188;-0.374;2023-09-30T06:03:16;102329.53;;;21.66;58.75
48862;BME280;34681;49.188;-0.374;2023-09-30T06:05:42;102332.50;;;21.65;58.67
48862;BME280;34681;49.188;-0.374;2023-09-30T06:08:09;102335.09;;;21.66;58.60
48862;BME280;34681;49.188;-0.374;2023-09-30T06:10:40;102316.47;;;21.67;58.57
48862;BME280;34681;49.188;-0.374;2023-09-30T06:13:08;102322.91;;;21.67;58.70
48862;BME280;34681;49.188;-0.374;2023-09-30T06:15:37;102322.56;;;21.70;58.73
48862;BME280;34681;49.188;-0.374;2023-09-30T06:18:02;102336.47;;;21.70;58.38
48862;BME280;34681;49.188;-0.374;2023-09-30T06:20:29;102348.69;;;21.69;58.67
48862;BME280;34681;49.188;-0.374;2023-09-30T06:22:56;102337.34;;;21.71;58.59
48862;BME280;34681;49.188;-0.374;2023-09-30T06:25:22;102336.28;;;21.72;58.71
48862;BME280;34681;49.188;-0.374;2023-09-30T06:27:49;102344.47;;;21.73;58.41
48862;BME280;34681;49.188;-0.374;2023-09-30T06:30:16;102338.88;;;21.73;58.42
48862;BME280;34681;49.188;-0.374;2023-09-30T06:32:42;102341.50;;;21.75;58.62
48862;BME280;34681;49.188;-0.374;2023-09-30T06:35:08;102351.56;;;21.76;58.40
48862;BME280;34681;49.188;-0.374;2023-09-30T06:37:36;102346.00;;;21.76;58.43
48862;BME280;34681;49.188;-0.374;2023-09-30T06:40:04;102350.72;;;21.75;58.51
48862;BME280;34681;49.188;-0.374;2023-09-30T06:42:30;102361.69;;;21.77;58.46
48862;BME280;34681;49.188;-0.374;2023-09-30T06:44:56;102352.47;;;21.76;58.58
48862;BME280;34681;49.188;-0.374;2023-09-30T06:47:22;102343.06;;;21.77;58.69
48862;BME280;34681;49.188;-0.374;2023-09-30T06:49:49;102340.97;;;21.79;58.37
48862;BME280;34681;49.188;-0.374;2023-09-30T06:52:14;102331.53;;;21.80;58.24
48862;BME280;34681;49.188;-0.374;2023-09-30T06:54:39;102355.38;;;21.83;58.20
48862;BME280;34681;49.188;-0.374;2023-09-30T06:57:05;102362.69;;;21.84;58.42
48862;BME280;34681;49.188;-0.374;2023-09-30T06:59:32;102376.47;;;21.85;58.12
48862;BME280;34681;49.188;-0.374;2023-09-30T07:01:57;102376.94;;;21.89;58.02
48862;BME280;34681;49.188;-0.374;2023-09-30T07:04:23;102367.19;;;21.93;58.14
48862;BME280;34681;49.188;-0.374;2023-09-30T07:06:48;102365.75;;;21.97;58.29
48862;BME280;34681;49.188;-0.374;2023-09-30T07:09:13;102358.94;;;22.00;57.91
48862;BME280;34681;49.188;-0.374;2023-09-30T07:11:38;102367.16;;;22.01;58.16
48862;BME280;34681;49.188;-0.374;2023-09-30T07:14:04;102360.50;;;22.02;58.08
48862;BME280;34681;49.188;-0.374;2023-09-30T07:16:29;102381.56;;;22.05;58.01
48862;BME280;34681;49.188;-0.374;2023-09-30T07:18:55;102383.28;;;22.06;58.02
48862;BME280;34681;49.188;-0.374;2023-09-30T07:21:20;102383.28;;;22.06;57.83
48862;BME280;34681;49.188;-0.374;2023-09-30T07:23:46;102394.28;;;22.07;57.74
48862;BME280;34681;49.188;-0.374;2023-09-30T07:26:13;102401.75;;;22.07;58.08
48862;BME280;34681;49.188;-0.374;2023-09-30T07:28:39;102394.09;;;22.09;57.58
48862;BME280;34681;49.188;-0.374;2023-09-30T07:31:05;102392.22;;;22.09;57.74
48862;BME280;34681;49.188;-0.374;2023-09-30T07:33:30;102388.19;;;22.12;57.96
48862;BME280;34681;49.188;-0.374;2023-09-30T07:35:56;102383.28;;;22.14;57.85
48862;BME280;34681;49.188;-0.374;2023-09-30T07:38:22;102367.03;;;22.18;57.83
48862;BME280;34681;49.188;-0.374;2023-09-30T07:40:48;102379.78;;;22.20;57.77
48862;BME280;34681;49.188;-0.374;2023-09-30T07:43:14;102396.31;;;22.22;57.25
48862;BME280;34681;49.188;-0.374;2023-09-30T07:45:39;102390.34;;;22.25;57.34
48862;BME280;34681;49.188;-0.374;2023-09-30T07:48:07;102376.41;;;22.25;57.66
48862;BME280;34681;49.188;-0.374;2023-09-30T07:50:34;102370.69;;;22.26;57.68
48862;BME280;34681;49.188;-0.374;2023-09-30T07:53:00;102371.53;;;22.27;57.59
48862;BME280;34681;49.188;-0.374;2023-09-30T07:55:25;102382.50;;;22.28;57.53
48862;BME280;34681;49.188;-0.374;2023-09-30T07:57:51;102390.38;;;21.85;49.24
48862;BME280;34681;49.188;-0.374;2023-09-30T08:00:17;102391.84;;;20.61;50.37
48862;BME280;34681;49.188;-0.374;2023-09-30T08:02:42;102387.63;;;19.82;54.54
48862;BME280;34681;49.188;-0.374;2023-09-30T08:05:08;102381.03;;;19.49;55.58
48862;BME280;34681;49.188;-0.374;2023-09-30T08:07:34;102380.81;;;19.42;55.66
48862;BME280;34681;49.188;-0.374;2023-09-30T08:10:00;102392.22;;;19.31;56.19
48862;BME280;34681;49.188;-0.374;2023-09-30T08:12:25;102384.22;;;19.02;57.43
48862;BME280;34681;49.188;-0.374;2023-09-30T08:14:51;102377.00;;;19.43;58.90
48862;BME280;34681;49.188;-0.374;2023-09-30T08:17:19;102379.00;;;20.01;58.89
48862;BME280;34681;49.188;-0.374;2023-09-30T08:19:44;102394.44;;;20.46;58.72
48862;BME280;34681;49.188;-0.374;2023-09-30T08:22:10;102393.59;;;20.78;58.84
48862;BME280;34681;49.188;-0.374;2023-09-30T08:24:35;102394.75;;;21.00;58.58
48862;BME280;34681;49.188;-0.374;2023-09-30T08:27:01;102395.59;;;21.17;58.43
48862;BME280;34681;49.188;-0.374;2023-09-30T08:29:26;102395.97;;;21.30;58.37
48862;BME280;34681;49.188;-0.374;2023-09-30T08:31:52;102395.25;;;21.44;58.43
48862;BME280;34681;49.188;-0.374;2023-09-30T08:34:17;102407.34;;;21.59;58.23
48862;BME280;34681;49.188;-0.374;2023-09-30T08:36:45;102409.09;;;21.69;58.50
48862;BME280;34681;49.188;-0.374;2023-09-30T08:39:10;102423.84;;;21.77;58.34
48862;BME280;34681;49.188;-0.374;2023-09-30T08:41:36;102411.09;;;21.83;58.12
48862;BME280;34681;49.188;-0.374;2023-09-30T08:44:02;102413.16;;;21.89;58.14
48862;BME280;34681;49.188;-0.374;2023-09-30T08:46:31;102411.78;;;21.93;58.29
48862;BME280;34681;49.188;-0.374;2023-09-30T08:48:58;102405.63;;;21.98;57.98
48862;BME280;34681;49.188;-0.374;2023-09-30T08:51:25;102413.47;;;22.02;57.95
48862;BME280;34681;49.188;-0.374;2023-09-30T08:53:52;102402.66;;;22.07;58.27
48862;BME280;34681;49.188;-0.374;2023-09-30T08:56:20;102405.97;;;22.11;57.98
48862;BME280;34681;49.188;-0.374;2023-09-30T08:58:47;102403.47;;;22.16;58.05
48862;BME280;34681;49.188;-0.374;2023-09-30T09:01:13;102406.59;;;22.21;57.77
48862;BME280;34681;49.188;-0.374;2023-09-30T09:03:38;102410.06;;;22.23;57.76
48862;BME280;34681;49.188;-0.374;2023-09-30T09:06:04;102404.28;;;22.25;57.88
48862;BME280;34681;49.188;-0.374;2023-09-30T09:08:29;102400.44;;;22.26;57.92
48862;BME280;34681;49.188;-0.374;2023-09-30T09:10:56;102405.88;;;22.27;57.85
48862;BME280;34681;49.188;-0.374;2023-09-30T09:13:23;102399.22;;;22.28;57.77
48862;BME280;34681;49.188;-0.374;2023-09-30T09:15:49;102402.88;;;22.29;57.79
48862;BME280;34681;49.188;-0.374;2023-09-30T09:18:31;102403.03;;;22.35;57.36
48862;BME280;34681;49.188;-0.374;2023-09-30T09:21:17;102400.72;;;22.39;57.61
48862;BME280;34681;49.188;-0.374;2023-09-30T09:23:44;102389.09;;;22.35;57.64
48862;BME280;34681;49.188;-0.374;2023-09-30T09:26:27;102397.63;;;22.80;52.79
48862;BME280;34681;49.188;-0.374;2023-09-30T09:29:10;102387.03;;;22.52;51.79
48862;BME280;34681;49.188;-0.374;2023-09-30T09:31:36;102379.16;;;22.10;52.51
48862;BME280;34681;49.188;-0.374;2023-09-30T09:34:03;102390.09;;;21.72;51.97
48862;BME280;34681;49.188;-0.374;2023-09-30T09:39:06;102386.38;;;21.16;53.43
48862;BME280;34681;49.188;-0.374;2023-09-30T09:41:32;102380.50;;;21.11;54.05
48862;BME280;34681;49.188;-0.374;2023-09-30T09:43:59;102378.56;;;21.20;53.83
48862;BME280;34681;49.188;-0.374;2023-09-30T09:46:25;102379.25;;;21.22;54.43
48862;BME280;34681;49.188;-0.374;2023-09-30T09:48:53;102375.09;;;21.10;54.45
48862;BME280;34681;49.188;-0.374;2023-09-30T09:51:20;102376.00;;;21.02;55.45
48862;BME280;34681;49.188;-0.374;2023-09-30T09:53:46;102386.75;;;21.13;55.07
48862;BME280;34681;49.188;-0.374;2023-09-30T09:56:15;102369.00;;;21.14;55.42
48862;BME280;34681;49.188;-0.374;2023-09-30T09:58:42;102369.69;;;21.16;55.72
48862;BME280;34681;49.188;-0.374;2023-09-30T10:01:09;102375.84;;;20.79;56.14
48862;BME280;34681;49.188;-0.374;2023-09-30T10:03:36;102367.16;;;20.58;57.02
48862;BME280;34681;49.188;-0.374;2023-09-30T10:06:02;102365.06;;;20.60;57.24
48862;BME280;34681;49.188;-0.374;2023-09-30T10:08:36;102366.47;;;20.72;57.38
48862;BME280;34681;49.188;-0.374;2023-09-30T10:11:04;102370.28;;;20.71;57.33
48862;BME280;34681;49.188;-0.374;2023-09-30T10:19:21;102357.56;;;20.85;59.56
48862;BME280;34681;49.188;-0.374;2023-09-30T10:24:56;102336.03;;;19.63;62.68
48862;BME280;34681;49.188;-0.374;2023-09-30T10:40:53;102338.28;;;20.75;62.78
48862;BME280;34681;49.188;-0.374;2023-09-30T10:43:34;102330.59;;;20.93;62.70
48862;BME280;34681;49.188;-0.374;2023-09-30T10:46:37;102320.88;;;20.89;60.59
48862;BME280;34681;49.188;-0.374;2023-09-30T10:48:56;102307.63;;;20.99;60.09
48862;BME280;34681;49.188;-0.374;2023-09-30T10:51:22;102317.38;;;21.03;59.65
48862;BME280;34681;49.188;-0.374;2023-09-30T10:56:17;102302.69;;;21.34;60.63
48862;BME280;34681;49.188;-0.374;2023-09-30T11:01:16;102311.38;;;21.39;57.46
48862;BME280;34681;49.188;-0.374;2023-09-30T11:03:43;102317.81;;;21.40;58.31
48862;BME280;34681;49.188;-0.374;2023-09-30T11:06:14;102308.22;;;21.42;57.98
48862;BME280;34681;49.188;-0.374;2023-09-30T11:08:59;102301.47;;;21.37;58.08
48862;BME280;34681;49.188;-0.374;2023-09-30T11:11:44;102298.50;;;21.38;57.65
48862;BME280;34681;49.188;-0.374;2023-09-30T11:16:50;102302.34;;;21.37;56.48
48862;BME280;34681;49.188;-0.374;2023-09-30T11:19:16;102300.31;;;21.62;56.81
48862;BME280;34681;49.188;-0.374;2023-09-30T11:21:42;102298.47;;;21.46;57.13
48862;BME280;34681;49.188;-0.374;2023-09-30T11:24:09;102300.75;;;21.26;55.93
48862;BME280;34681;49.188;-0.374;2023-09-30T11:26:34;102295.38;;;21.25;56.90
48862;BME280;34681;49.188;-0.374;2023-09-30T11:29:08;102292.78;;;21.31;56.77
48862;BME280;34681;49.188;-0.374;2023-09-30T11:31:37;102289.31;;;21.29;56.51
48862;BME280;34681;49.188;-0.374;2023-09-30T11:34:02;102283.19;;;21.34;55.50
48862;BME280;34681;49.188;-0.374;2023-09-30T11:36:34;102283.75;;;21.29;56.37
48862;BME280;34681;49.188;-0.374;2023-09-30T11:39:00;102285.06;;;21.42;55.99
48862;BME280;34681;49.188;-0.374;2023-09-30T11:41:38;102284.13;;;21.57;55.13
48862;BME280;34681;49.188;-0.374;2023-09-30T11:44:10;102290.75;;;21.56;55.09
48862;BME280;34681;49.188;-0.374;2023-09-30T11:46:57;102283.41;;;21.64;54.62
48862;BME280;34681;49.188;-0.374;2023-09-30T11:49:33;102286.53;;;21.69;54.56
48862;BME280;34681;49.188;-0.374;2023-09-30T11:52:05;102290.66;;;21.73;54.89
48862;BME280;34681;49.188;-0.374;2023-09-30T11:54:39;102280.34;;;21.81;54.69
48862;BME280;34681;49.188;-0.374;2023-09-30T11:57:07;102284.38;;;21.79;54.30
48862;BME280;34681;49.188;-0.374;2023-09-30T11:59:36;102277.56;;;21.81;53.80
48862;BME280;34681;49.188;-0.374;2023-09-30T12:02:03;102276.31;;;21.84;55.00
48862;BME280;34681;49.188;-0.374;2023-09-30T12:04:31;102266.13;;;21.76;54.82
48862;BME280;34681;49.188;-0.374;2023-09-30T12:06:56;102270.00;;;21.90;55.28
48862;BME280;34681;49.188;-0.374;2023-09-30T12:09:22;102269.38;;;22.11;54.16
48862;BME280;34681;49.188;-0.374;2023-09-30T12:11:53;102267.81;;;22.08;54.24
48862;BME280;34681;49.188;-0.374;2023-09-30T12:14:20;102263.28;;;22.07;54.03
48862;BME280;34681;49.188;-0.374;2023-09-30T12:16:46;102264.66;;;22.11;54.47
48862;BME280;34681;49.188;-0.374;2023-09-30T12:19:13;102248.81;;;22.12;54.63
48862;BME280;34681;49.188;-0.374;2023-09-30T12:21:41;102247.81;;;22.28;54.84
48862;BME280;34681;49.188;-0.374;2023-09-30T12:24:07;102238.97;;;22.39;55.63
48862;BME280;34681;49.188;-0.374;2023-09-30T12:26:37;102229.34;;;22.41;54.21
48862;BME280;34681;49.188;-0.374;2023-09-30T12:29:03;102234.53;;;22.30;54.18
48862;BME280;34681;49.188;-0.374;2023-09-30T12:31:30;102230.97;;;22.21;54.68
48862;BME280;34681;49.188;-0.374;2023-09-30T12:33:56;102225.28;;;22.06;54.35
48862;BME280;34681;49.188;-0.374;2023-09-30T12:36:21;102226.91;;;22.01;55.34
48862;BME280;34681;49.188;-0.374;2023-09-30T12:38:47;102231.06;;;22.05;55.74
48862;BME280;34681;49.188;-0.374;2023-09-30T12:41:13;102224.06;;;22.09;55.84
48862;BME280;34681;49.188;-0.374;2023-09-30T12:43:39;102235.22;;;22.09;55.38
48862;BME280;34681;49.188;-0.374;2023-09-30T12:48:32;102223.53;;;22.13;55.41
48862;BME280;34681;49.188;-0.374;2023-09-30T12:50:57;102224.72;;;22.19;54.88
48862;BME280;34681;49.188;-0.374;2023-09-30T12:53:22;102218.56;;;22.24;55.29
48862;BME280;34681;49.188;-0.374;2023-09-30T12:55:48;102223.59;;;22.28;55.68
48862;BME280;34681;49.188;-0.374;2023-09-30T12:58:13;102214.91;;;22.23;54.49
48862;BME280;34681;49.188;-0.374;2023-09-30T13:00:38;102215.09;;;22.22;53.89
48862;BME280;34681;49.188;-0.374;2023-09-30T13:03:04;102208.97;;;22.26;55.24
48862;BME280;34681;49.188;-0.374;2023-09-30T13:05:29;102215.41;;;22.27;54.13
48862;BME280;34681;49.188;-0.374;2023-09-30T13:07:56;102218.38;;;22.25;54.57
48862;BME280;34681;49.188;-0.374;2023-09-30T13:10:22;102210.00;;;22.25;55.11
48862;BME280;34681;49.188;-0.374;2023-09-30T13:12:48;102198.84;;;22.10;52.93
48862;BME280;34681;49.188;-0.374;2023-09-30T13:15:17;102189.59;;;22.10;54.35
48862;BME280;34681;49.188;-0.374;2023-09-30T13:17:43;102189.81;;;22.23;54.95